Asona — 9GHM — position and weather

sailwx.info

Track history (hours):
 
Tides and Currents Weather Stations Pressure Air Temp Water Temp Dewpoint Dewpoint Depression Visibility Wind Speed Wind Dir Waves Ship Positions

Asona

Last reported at 2017-Sep-13 14:22 UTC. Time now 2017-Sep-25 07:46 UTC.
Position N 05°31' W 000°05'.
Warning: this ship's position is 11 days out of date.

Type: Fishing. MMSI: 627576000.

Date/timePositionNaut miles runAvg speedWind from/ knotsBaromVisibWave heightAir tempDewpointWater temp
2017-Sep-13 14:22N 05°31' W 000°05'2 4.6
2017-Sep-13 14:00N 05°32' W 000°03'4 8.6
2017-Sep-13 13:30N 05°35' W 000°00'3 6.5
2017-Sep-13 12:59N 05°38' E 000°01'0 0.0
2017-Sep-13 12:29N 05°38' E 000°01'0 0.0
2017-Sep-13 11:59N 05°38' E 000°01'0 0.0
2017-Sep-13 11:29N 05°38' E 000°01'0 0.0
2017-Sep-13 10:59N 05°38' E 000°01'0 0.0
2017-Sep-13 10:29N 05°38' E 000°01'0 0.0
2017-Sep-13 09:59N 05°38' E 000°01'0 0.0
2017-Sep-13 09:26N 05°38' E 000°01'0 0.0
2017-Sep-13 08:59N 05°38' E 000°01'0 0.0
2017-Sep-13 08:29N 05°38' E 000°01'0 0.0
2017-Sep-12 21:50N 05°38' E 000°01'0 0.0
2017-Sep-12 21:29N 05°38' E 000°01'0 0.0
2017-Sep-12 20:59N 05°38' E 000°01'0 0.0
2017-Sep-12 20:29N 05°38' E 000°01'0 0.0
2017-Sep-12 19:59N 05°38' E 000°01'0 0.0
2017-Sep-12 19:29N 05°38' E 000°01'0 0.0
2017-Sep-12 18:59N 05°38' E 000°01'0 0.0
2017-Sep-12 18:29N 05°38' E 000°01'0 0.0
2017-Sep-12 17:59N 05°38' E 000°01'0 0.0
2017-Sep-12 17:29N 05°38' E 000°01'0 0.0
2017-Sep-12 16:59N 05°38' E 000°01'0 0.0
2017-Sep-12 16:29N 05°38' E 000°01'0 0.0
2017-Sep-12 15:59N 05°38' E 000°01'0 0.0
2017-Sep-12 15:29N 05°38' E 000°01'0 0.0
2017-Sep-12 14:59N 05°38' E 000°01'0 0.0
2017-Sep-12 14:29N 05°38' E 000°01'0 0.0
2017-Sep-12 13:59N 05°38' E 000°01'0 0.0
2017-Sep-12 13:29N 05°38' E 000°01'0 0.0
2017-Sep-12 12:59N 05°38' E 000°01'0 0.0
2017-Sep-12 12:29N 05°38' E 000°01'0 0.0
2017-Sep-12 11:59N 05°38' E 000°01'0 0.0
2017-Sep-12 11:29N 05°38' E 000°01'0 0.0
2017-Sep-12 10:59N 05°38' E 000°01'0 0.0
2017-Sep-12 10:29N 05°38' E 000°01'0 0.0
2017-Sep-12 09:59N 05°38' E 000°01'0 0.0
2017-Sep-12 09:29N 05°38' E 000°01'0 0.0
2017-Sep-12 08:59N 05°38' E 000°01'0 0.0
2017-Sep-12 08:29N 05°38' E 000°01'0 0.0
2017-Sep-12 07:59N 05°38' E 000°01'0 0.0
2017-Sep-12 07:29N 05°38' E 000°01'0 0.0
2017-Sep-12 06:59N 05°38' E 000°01'0 0.0
2017-Sep-12 06:29N 05°38' E 000°01'0 0.0
2017-Sep-12 05:59N 05°38' E 000°01'0 0.0
2017-Sep-12 05:29N 05°38' E 000°01'0 0.0
2017-Sep-12 04:59N 05°38' E 000°01'0 0.0
2017-Sep-12 04:29N 05°38' E 000°01'0 0.0
2017-Sep-12 03:59N 05°38' E 000°01'0 0.0
2017-Sep-12 03:29N 05°38' E 000°01'0 0.0
2017-Sep-12 02:59N 05°38' E 000°01'0 0.0
2017-Sep-12 02:29N 05°38' E 000°01'0 0.0
2017-Sep-12 01:59N 05°38' E 000°01'0 0.0
2017-Sep-12 01:29N 05°38' E 000°01'0 0.0
2017-Sep-12 00:59N 05°38' E 000°01'0 0.0
2017-Sep-12 00:29N 05°38' E 000°01'0 0.0
2017-Sep-11 23:59N 05°38' E 000°01'0 0.0
2017-Sep-11 23:29N 05°38' E 000°01'0 0.0
2017-Sep-11 22:59N 05°38' E 000°01'0 0.0
2017-Sep-11 22:29N 05°38' E 000°01'0 0.0
2017-Sep-11 21:56N 05°38' E 000°01'0 0.0
2017-Sep-11 21:29N 05°38' E 000°01'0 0.0
2017-Sep-11 20:59N 05°38' E 000°01'0 0.0
2017-Sep-11 20:29N 05°38' E 000°01'0 0.0
2017-Sep-11 19:59N 05°38' E 000°01'0 0.0
2017-Sep-11 19:29N 05°38' E 000°01'0 0.0
2017-Sep-11 18:59N 05°38' E 000°01'0 0.0
2017-Sep-11 18:29N 05°38' E 000°01'0 0.0
2017-Sep-11 17:59N 05°38' E 000°01'0 0.0
2017-Sep-11 17:29N 05°38' E 000°01'0 0.0
2017-Sep-11 16:53N 05°38' E 000°01'0 0.0
2017-Sep-11 16:29N 05°38' E 000°01'0 0.0
2017-Sep-11 15:59N 05°38' E 000°01'0 0.0
2017-Sep-11 15:29N 05°38' E 000°01'0 0.0
2017-Sep-11 14:59N 05°38' E 000°01'1 2.2
2017-Sep-11 14:30N 05°37' E 000°01'2 3.2
2017-Sep-11 14:00N 05°36' E 000°03'1 1.2
2017-Sep-11 13:28N 05°36' E 000°02'3 5.6
2017-Sep-11 13:00N 05°37' E 000°05'1 1.5
2017-Sep-11 12:30N 05°37' E 000°04'1 1.4
2017-Sep-11 12:00N 05°36' E 000°04'1 1.4
2017-Sep-11 11:30N 05°36' E 000°03'1 1.3
2017-Sep-11 11:00N 05°36' E 000°02'1 1.3
2017-Sep-11 10:30N 05°35' E 000°02'1 1.3
2017-Sep-11 10:00N 05°35' E 000°01'1 1.3
2017-Sep-11 09:29N 05°35' E 000°00'1 1.3
2017-Sep-11 09:00N 05°35' W 000°00'2 3.6
2017-Sep-11 08:30N 05°36' E 000°01'1 1.3
2017-Sep-11 08:00N 05°37' E 000°02'0 1.0
2017-Sep-11 07:30N 05°36' E 000°02'1 1.0
2017-Sep-11 06:58N 05°36' E 000°02'0 0.9
2017-Sep-11 06:30N 05°36' E 000°01'0 1.0
2017-Sep-11 06:00N 05°35' E 000°01'1 1.2
2017-Sep-11 05:28N 05°35' E 000°00'0 0.4
2017-Sep-11 05:00N 05°35' E 000°00'1 2.7
2017-Sep-11 04:30N 05°33' W 000°00'  
2017-Sep-07 22:04N 05°27' W 000°09'1 9.1
2017-Sep-07 21:59N 05°27' W 000°08'7 9.0
2017-Sep-07 21:11N 05°29' W 000°02'2 9.0
2017-Sep-07 20:56N 05°30' E 000°01'4 9.0
2017-Sep-07 20:30N 05°30' E 000°05'5 1.0
2017-Sep-07 15:18N 05°29' E 000°10'  
Track history (hours):
 
Tides and Currents Weather Stations Pressure Air Temp Water Temp Dewpoint Dewpoint Depression Visibility Wind Speed Wind Dir Waves Ship Positions

Asona

Last reported at 2017-Sep-13 14:22 UTC. Time now 2017-Sep-25 07:46 UTC.
Position N 05°31' W 000°05'.
Warning: this ship's position is 11 days out of date.

Type: Fishing. MMSI: 627576000.

Date/timePositionNaut miles runAvg speedWind from/ knotsBaromVisibWave heightAir tempDewpointWater temp
2017-Sep-13 14:22N 05°31' W 000°05'2 4.6
2017-Sep-13 14:00N 05°32' W 000°03'4 8.6
2017-Sep-13 13:30N 05°35' W 000°00'3 6.5
2017-Sep-13 12:59N 05°38' E 000°01'0 0.0
2017-Sep-13 12:29N 05°38' E 000°01'0 0.0
2017-Sep-13 11:59N 05°38' E 000°01'0 0.0
2017-Sep-13 11:29N 05°38' E 000°01'0 0.0
2017-Sep-13 10:59N 05°38' E 000°01'0 0.0
2017-Sep-13 10:29N 05°38' E 000°01'0 0.0
2017-Sep-13 09:59N 05°38' E 000°01'0 0.0
2017-Sep-13 09:26N 05°38' E 000°01'0 0.0
2017-Sep-13 08:59N 05°38' E 000°01'0 0.0
2017-Sep-13 08:29N 05°38' E 000°01'0 0.0
2017-Sep-12 21:50N 05°38' E 000°01'0 0.0
2017-Sep-12 21:29N 05°38' E 000°01'0 0.0
2017-Sep-12 20:59N 05°38' E 000°01'0 0.0
2017-Sep-12 20:29N 05°38' E 000°01'0 0.0
2017-Sep-12 19:59N 05°38' E 000°01'0 0.0
2017-Sep-12 19:29N 05°38' E 000°01'0 0.0
2017-Sep-12 18:59N 05°38' E 000°01'0 0.0
2017-Sep-12 18:29N 05°38' E 000°01'0 0.0
2017-Sep-12 17:59N 05°38' E 000°01'0 0.0
2017-Sep-12 17:29N 05°38' E 000°01'0 0.0
2017-Sep-12 16:59N 05°38' E 000°01'0 0.0
2017-Sep-12 16:29N 05°38' E 000°01'0 0.0
2017-Sep-12 15:59N 05°38' E 000°01'0 0.0
2017-Sep-12 15:29N 05°38' E 000°01'0 0.0
2017-Sep-12 14:59N 05°38' E 000°01'0 0.0
2017-Sep-12 14:29N 05°38' E 000°01'0 0.0
2017-Sep-12 13:59N 05°38' E 000°01'0 0.0
2017-Sep-12 13:29N 05°38' E 000°01'0 0.0
2017-Sep-12 12:59N 05°38' E 000°01'0 0.0
2017-Sep-12 12:29N 05°38' E 000°01'0 0.0
2017-Sep-12 11:59N 05°38' E 000°01'0 0.0
2017-Sep-12 11:29N 05°38' E 000°01'0 0.0
2017-Sep-12 10:59N 05°38' E 000°01'0 0.0
2017-Sep-12 10:29N 05°38' E 000°01'0 0.0
2017-Sep-12 09:59N 05°38' E 000°01'0 0.0
2017-Sep-12 09:29N 05°38' E 000°01'0 0.0
2017-Sep-12 08:59N 05°38' E 000°01'0 0.0
2017-Sep-12 08:29N 05°38' E 000°01'0 0.0
2017-Sep-12 07:59N 05°38' E 000°01'0 0.0
2017-Sep-12 07:29N 05°38' E 000°01'0 0.0
2017-Sep-12 06:59N 05°38' E 000°01'0 0.0
2017-Sep-12 06:29N 05°38' E 000°01'0 0.0
2017-Sep-12 05:59N 05°38' E 000°01'0 0.0
2017-Sep-12 05:29N 05°38' E 000°01'0 0.0
2017-Sep-12 04:59N 05°38' E 000°01'0 0.0
2017-Sep-12 04:29N 05°38' E 000°01'0 0.0
2017-Sep-12 03:59N 05°38' E 000°01'0 0.0
2017-Sep-12 03:29N 05°38' E 000°01'0 0.0
2017-Sep-12 02:59N 05°38' E 000°01'0 0.0
2017-Sep-12 02:29N 05°38' E 000°01'0 0.0
2017-Sep-12 01:59N 05°38' E 000°01'0 0.0
2017-Sep-12 01:29N 05°38' E 000°01'0 0.0
2017-Sep-12 00:59N 05°38' E 000°01'0 0.0
2017-Sep-12 00:29N 05°38' E 000°01'0 0.0
2017-Sep-11 23:59N 05°38' E 000°01'0 0.0
2017-Sep-11 23:29N 05°38' E 000°01'0 0.0
2017-Sep-11 22:59N 05°38' E 000°01'0 0.0
2017-Sep-11 22:29N 05°38' E 000°01'0 0.0
2017-Sep-11 21:56N 05°38' E 000°01'0 0.0
2017-Sep-11 21:29N 05°38' E 000°01'0 0.0
2017-Sep-11 20:59N 05°38' E 000°01'0 0.0
2017-Sep-11 20:29N 05°38' E 000°01'0 0.0
2017-Sep-11 19:59N 05°38' E 000°01'0 0.0
2017-Sep-11 19:29N 05°38' E 000°01'0 0.0
2017-Sep-11 18:59N 05°38' E 000°01'0 0.0
2017-Sep-11 18:29N 05°38' E 000°01'0 0.0
2017-Sep-11 17:59N 05°38' E 000°01'0 0.0
2017-Sep-11 17:29N 05°38' E 000°01'0 0.0
2017-Sep-11 16:53N 05°38' E 000°01'0 0.0
2017-Sep-11 16:29N 05°38' E 000°01'0 0.0
2017-Sep-11 15:59N 05°38' E 000°01'0 0.0
2017-Sep-11 15:29N 05°38' E 000°01'0 0.0
2017-Sep-11 14:59N 05°38' E 000°01'1 2.2
2017-Sep-11 14:30N 05°37' E 000°01'2 3.2
2017-Sep-11 14:00N 05°36' E 000°03'1 1.2
2017-Sep-11 13:28N 05°36' E 000°02'3 5.6
2017-Sep-11 13:00N 05°37' E 000°05'1 1.5
2017-Sep-11 12:30N 05°37' E 000°04'1 1.4
2017-Sep-11 12:00N 05°36' E 000°04'1 1.4
2017-Sep-11 11:30N 05°36' E 000°03'1 1.3
2017-Sep-11 11:00N 05°36' E 000°02'1 1.3
2017-Sep-11 10:30N 05°35' E 000°02'1 1.3
2017-Sep-11 10:00N 05°35' E 000°01'1 1.3
2017-Sep-11 09:29N 05°35' E 000°00'1 1.3
2017-Sep-11 09:00N 05°35' W 000°00'2 3.6
2017-Sep-11 08:30N 05°36' E 000°01'1 1.3
2017-Sep-11 08:00N 05°37' E 000°02'0 1.0
2017-Sep-11 07:30N 05°36' E 000°02'1 1.0
2017-Sep-11 06:58N 05°36' E 000°02'0 0.9
2017-Sep-11 06:30N 05°36' E 000°01'0 1.0
2017-Sep-11 06:00N 05°35' E 000°01'1 1.2
2017-Sep-11 05:28N 05°35' E 000°00'0 0.4
2017-Sep-11 05:00N 05°35' E 000°00'1 2.7
2017-Sep-11 04:30N 05°33' W 000°00'  
2017-Sep-07 22:04N 05°27' W 000°09'1 9.1
2017-Sep-07 21:59N 05°27' W 000°08'7 9.0
2017-Sep-07 21:11N 05°29' W 000°02'2 9.0
2017-Sep-07 20:56N 05°30' E 000°01'4 9.0
2017-Sep-07 20:30N 05°30' E 000°05'5 1.0
2017-Sep-07 15:18N 05°29' E 000°10'  

Dump ship's entire track history